This is the latest recevied weather packets stored in our database for station/object ED2YAA-3. If no packets are shown the sender has not sent any weather packets the latest 10 day(s).
| Time | Temp. | Humidity | Pressure | Rain* | Wind** | Luminosity | Snow |
|---|---|---|---|---|---|---|---|
| 1777844535 | 15° C | 85% | 992.6 hPa | 0 mm | - | - | - |
| 1777844129 | 15° C | 84% | 992.6 hPa | 0 mm | - | - | - |
| 1777840935 | 15.56° C | 84% | 991 hPa | 0 mm | - | - | - |
| 1777840529 | 15.56° C | 83% | 991 hPa | 0 mm | - | - | - |
| 1777837334 | 15.56° C | 82% | 990.6 hPa | 0 mm | - | - | - |
| 1777836930 | 16.11° C | 81% | 990.6 hPa | 0 mm | - | - | - |
| 1777833736 | 16.11° C | 81% | 990.5 hPa | 0 mm | - | - | - |
| 1777833330 | 16.11° C | 81% | 990.4 hPa | 0 mm | - | - | - |
| 1777830135 | 16.67° C | 79% | 989.7 hPa | 0 mm | - | - | - |
| 1777829730 | 16.67° C | 79% | 989.8 hPa | 0 mm | - | - | - |
| 1777826534 | 20.56° C | 67% | 989 hPa | 0 mm | - | - | - |
| 1777826130 | 21.11° C | 67% | 988.8 hPa | 0 mm | - | - | - |
| 1777822935 | 21.11° C | 64% | 988.1 hPa | 0 mm | - | - | - |
| 1777822529 | 21.11° C | 64% | 988.1 hPa | 0 mm | - | - | - |
| 1777819333 | 20.56° C | 63% | 989 hPa | 0 mm | - | - | - |
| 1777818929 | 20.56° C | 64% | 989.1 hPa | 0 mm | - | - | - |
| 1777815735 | 21.11° C | 62% | 990.2 hPa | 0 mm | - | - | - |
| 1777815329 | 21.11° C | 62% | 990.4 hPa | 0 mm | - | - | - |
| 1777812134 | 20° C | 67% | 991.4 hPa | 0 mm | - | - | - |
| 1777811728 | 20° C | 67% | 991.4 hPa | 0 mm | - | - | - |
| 1777808534 | 19.44° C | 68% | 992.1 hPa | 0 mm | - | - | - |
| 1777808130 | 19.44° C | 69% | 992 hPa | 0 mm | - | - | - |
| 1777804933 | 23.89° C | 52% | 991.3 hPa | 0 mm | - | - | - |
| 1777804529 | 24.44° C | 51% | 991.2 hPa | 0 mm | - | - | - |
| 1777801333 | 31.11° C | 42% | 991.5 hPa | 0 mm | - | - | - |
* Rain latest hour (hover to see other rain measurements)
** Current wind speed in m/s (hover to see current wind gust speed)